Time;durP1;ratioP1;P1;durP2;ratioP2;P2;SDS_P1;SDS_P2;PMS_P1;PMS_P2;Temp;Humidity;BMP_temperature;BMP_pressure;BME280_temperature;BME280_humidity;BME280_pressure;Samples;Min_cycle;Max_cycle;Signal;HPM_P1;HPM_P2
2021/07/23 00:02:16;;;;;;;7.37;5.30;;;;;15.50;101538.00;;;;10430134;28;20221;-76
2021/07/23 00:07:18;;;;;;;8.13;6.30;;;;;15.40;101538.00;;;;10472002;28;20213;-76
2021/07/23 00:12:21;;;;;;;12.50;6.50;;;;;15.30;101543.00;;;;10447998;28;20269;-76
2021/07/23 00:17:23;;;;;;;7.93;5.93;;;;;15.20;101537.00;;;;10437794;28;20185;-76
2021/07/23 00:22:25;;;;;;;10.93;6.03;;;;;15.00;101535.00;;;;10442626;28;20214;-76
2021/07/23 00:27:27;;;;;;;8.20;6.63;;;;;14.90;101528.00;;;;10410565;28;20194;-76
2021/07/23 00:32:28;;;;;;;8.67;6.57;;;;;14.90;101532.00;;;;10460289;28;20573;-76
2021/07/23 00:37:40;;;;;;;9.70;6.60;;;;;14.80;101532.00;;;;10462424;28;20277;-76
2021/07/23 00:42:43;;;;;;;9.03;6.67;;;;;14.70;101525.00;;;;10425973;28;20205;-76
2021/07/23 00:47:49;;;;;;;8.70;6.73;;;;;14.60;101520.00;;;;10462789;28;20190;-76
2021/07/23 00:52:51;;;;;;;9.63;6.77;;;;;14.50;101519.00;;;;10449638;28;20216;-76
2021/07/23 00:57:55;;;;;;;7.93;6.97;;;;;14.50;101518.00;;;;10466292;28;20181;-76
2021/07/23 01:02:58;;;;;;;9.57;7.60;;;;;14.40;101514.00;;;;10454597;28;20199;-76
2021/07/23 01:08:01;;;;;;;11.90;7.60;;;;;14.30;101507.00;;;;10437211;28;20734;-76
2021/07/23 01:13:07;;;;;;;11.50;7.73;;;;;14.30;101504.00;;;;10445047;28;20287;-75
2021/07/23 01:18:11;;;;;;;11.90;7.40;;;;;14.20;101500.00;;;;10441419;28;20268;-76
2021/07/23 01:23:31;;;;;;;9.70;6.30;;;;;14.00;101498.00;;;;10464721;28;20213;-76
2021/07/23 01:28:38;;;;;;;9.57;7.33;;;;;14.00;101498.00;;;;10424692;28;20194;-76
2021/07/23 01:33:43;;;;;;;9.40;7.30;;;;;13.90;101491.00;;;;10427718;28;20205;-76
2021/07/23 01:38:47;;;;;;;13.03;7.07;;;;;13.90;101494.00;;;;10431302;28;20197;-76
2021/07/23 01:43:49;;;;;;;8.60;6.30;;;;;13.80;101487.00;;;;10444447;28;20222;-76
2021/07/23 01:48:52;;;;;;;8.33;6.27;;;;;13.70;101482.00;;;;10426841;28;20189;-76
2021/07/23 01:54:05;;;;;;;11.73;7.47;;;;;13.60;101485.00;;;;10466397;28;20206;-75
2021/07/23 01:59:08;;;;;;;10.67;7.40;;;;;13.50;101487.00;;;;10469036;28;20193;-75
2021/07/23 02:04:13;;;;;;;11.70;8.33;;;;;13.50;101481.00;;;;10447228;28;20669;-76
2021/07/23 02:09:16;;;;;;;15.17;9.00;;;;;13.40;101480.00;;;;10462891;28;20548;-75
2021/07/23 02:14:29;;;;;;;12.80;7.53;;;;;13.30;101479.00;;;;10462974;28;20189;-76
2021/07/23 02:19:32;;;;;;;14.53;9.30;;;;;13.30;101472.00;;;;10478788;28;20525;-75
2021/07/23 02:24:46;;;;;;;11.77;8.00;;;;;13.20;101478.00;;;;10502740;28;20213;-76
2021/07/23 02:29:51;;;;;;;10.60;8.33;;;;;13.20;101472.00;;;;10484755;28;20193;-76
2021/07/23 02:34:56;;;;;;;16.67;9.57;;;;;13.20;101465.00;;;;10446830;28;20210;-76
2021/07/23 02:40:02;;;;;;;14.57;8.30;;;;;13.20;101471.00;;;;10446555;28;20217;-76
2021/07/23 02:45:05;;;;;;;12.57;8.53;;;;;13.10;101465.00;;;;10444226;28;20212;-76
2021/07/23 02:50:08;;;;;;;13.77;8.80;;;;;13.10;101459.00;;;;10454425;28;20194;-75
2021/07/23 02:55:17;;;;;;;13.73;8.40;;;;;13.00;101458.00;;;;10436965;28;20202;-76
2021/07/23 03:00:24;;;;;;;11.33;8.60;;;;;13.00;101454.00;;;;10461608;28;20197;-76
2021/07/23 03:05:29;;;;;;;12.67;8.10;;;;;13.00;101453.00;;;;10444430;28;20252;-76
2021/07/23 03:10:35;;;;;;;15.87;8.50;;;;;12.90;101444.00;;;;10447414;28;20197;-76
2021/07/23 03:15:38;;;;;;;14.97;8.70;;;;;12.90;101438.00;;;;10445443;28;20190;-76
2021/07/23 03:20:41;;;;;;;13.57;8.87;;;;;12.90;101441.00;;;;10461707;28;20565;-75
2021/07/23 03:25:43;;;;;;;12.37;9.67;;;;;12.80;101439.00;;;;10416580;28;20200;-75
2021/07/23 03:30:58;;;;;;;12.43;8.50;;;;;12.70;101429.00;;;;10421505;28;20190;-76
2021/07/23 03:36:01;;;;;;;14.60;9.50;;;;;12.70;101422.00;;;;10404931;28;20213;-76
2021/07/23 03:41:05;;;;;;;14.27;9.30;;;;;12.70;101426.00;;;;10477137;28;20217;-75
2021/07/23 03:46:08;;;;;;;13.77;9.70;;;;;12.70;101427.00;;;;10468895;28;20708;-75
2021/07/23 03:51:17;;;;;;;15.97;10.20;;;;;12.60;101424.00;;;;10468976;28;20180;-75
2021/07/23 03:56:19;;;;;;;17.90;9.97;;;;;12.60;101424.00;;;;10444034;28;20201;-76
2021/07/23 04:01:22;;;;;;;13.60;9.63;;;;;12.60;101429.00;;;;10461414;28;20205;-76
2021/07/23 04:06:28;;;;;;;15.97;10.20;;;;;12.60;101427.00;;;;10467535;28;20218;-76
2021/07/23 04:11:45;;;;;;;16.13;9.80;;;;;12.60;101426.00;;;;10426774;28;20182;-76
2021/07/23 04:16:49;;;;;;;14.70;10.17;;;;;12.60;101416.00;;;;10426908;28;20190;-76
2021/07/23 04:21:52;;;;;;;14.83;10.10;;;;;12.70;101397.00;;;;10442939;28;20284;-76
2021/07/23 04:27:16;;;;;;;18.37;10.13;;;;;12.80;101400.00;;;;10440607;28;20657;-76
2021/07/23 04:32:44;;;;;;;13.47;9.57;;;;;13.00;101402.00;;;;10427132;28;20217;-76
2021/07/23 04:37:47;;;;;;;16.20;10.33;;;;;13.10;101393.00;;;;10483871;28;20664;-76
2021/07/23 04:43:09;;;;;;;17.53;9.80;;;;;13.20;101396.00;;;;10421500;28;20873;-76
2021/07/23 04:48:11;;;;;;;18.37;10.53;;;;;13.30;101396.00;;;;10426109;28;20549;-76
2021/07/23 04:53:41;;;;;;;14.73;9.93;;;;;13.40;101385.00;;;;10428913;28;20205;-77
2021/07/23 04:59:03;;;;;;;15.60;10.30;;;;;13.50;101388.00;;;;10444115;28;20248;-78
2021/07/23 05:04:05;;;;;;;17.50;10.83;;;;;13.80;101389.00;;;;10475767;28;20664;-76
2021/07/23 05:09:07;;;;;;;18.87;11.77;;;;;14.40;101388.00;;;;10466259;28;20196;-76
2021/07/23 05:14:15;;;;;;;20.70;11.17;;;;;14.60;101396.00;;;;10433463;28;20194;-76
2021/07/23 05:19:20;;;;;;;14.23;10.37;;;;;14.70;101400.00;;;;10441012;28;20202;-76
2021/07/23 05:24:23;;;;;;;17.10;11.53;;;;;15.00;101411.00;;;;10441671;28;20213;-76
2021/07/23 05:29:25;;;;;;;19.00;11.67;;;;;15.30;101418.00;;;;10491920;28;20805;-76
2021/07/23 05:34:27;;;;;;;18.80;11.90;;;;;15.70;101412.00;;;;10461862;28;20692;-76
2021/07/23 05:39:31;;;;;;;16.17;11.83;;;;;15.90;101417.00;;;;10445230;28;20189;-76
2021/07/23 05:44:33;;;;;;;16.53;11.60;;;;;16.30;101422.00;;;;10448378;28;20221;-76
2021/07/23 05:49:35;;;;;;;15.90;11.93;;;;;16.70;101423.00;;;;10448329;28;20189;-76
2021/07/23 05:54:36;;;;;;;13.47;10.83;;;;;17.20;101427.00;;;;10464335;28;20675;-76
2021/07/23 05:59:38;;;;;;;13.93;11.23;;;;;17.70;101444.00;;;;10464350;28;20235;-76
2021/07/23 06:04:41;;;;;;;14.80;11.20;;;;;18.10;101437.00;;;;10457252;28;20213;-76
2021/07/23 06:09:44;;;;;;;11.88;10.00;;;;;18.40;101433.00;;;;10460119;28;20190;-76
2021/07/23 06:14:46;;;;;;;12.32;10.73;;;;;18.70;101444.00;;;;10498490;28;20186;-76
2021/07/23 06:19:48;;;;;;;15.73;11.18;;;;;18.90;101436.00;;;;10446561;28;20204;-76
2021/07/23 06:24:52;;;;;;;13.25;11.43;;;;;19.20;101434.00;;;;10448841;28;20217;-76
2021/07/23 06:29:55;;;;;;;15.35;10.93;;;;;19.50;101442.00;;;;10445485;28;20294;-76
2021/07/23 06:34:57;;;;;;;14.95;11.23;;;;;19.90;101443.00;;;;10459496;28;20212;-77
2021/07/23 06:39:59;;;;;;;14.88;10.57;;;;;20.10;101439.00;;;;10472015;28;20250;-76
2021/07/23 06:45:04;;;;;;;13.88;10.65;;;;;20.30;101437.00;;;;10483123;28;20209;-76
2021/07/23 06:50:06;;;;;;;13.90;10.45;;;;;20.90;101452.00;;;;10465548;28;20194;-77
2021/07/23 06:55:12;;;;;;;12.45;10.20;;;;;21.30;101441.00;;;;10443096;28;20195;-76
2021/07/23 07:00:14;;;;;;;13.25;11.20;;;;;21.60;101437.00;;;;10471770;28;20205;-77
2021/07/23 07:05:17;;;;;;;14.35;11.15;;;;;21.90;101434.00;;;;10454009;28;20217;-76
2021/07/23 07:10:19;;;;;;;15.82;10.95;;;;;22.10;101433.00;;;;10450861;28;20193;-77
2021/07/23 07:15:21;;;;;;;12.10;10.63;;;;;22.30;101420.00;;;;10440427;28;20186;-76
2021/07/23 07:20:23;;;;;;;14.05;10.98;;;;;22.60;101418.00;;;;10433330;28;20225;-76
2021/07/23 07:25:26;;;;;;;16.63;10.25;;;;;23.00;101423.00;;;;10461841;28;20666;-77
2021/07/23 07:30:28;;;;;;;11.05;9.65;;;;;23.20;101414.00;;;;10454091;28;20209;-76
2021/07/23 07:35:31;;;;;;;12.93;10.65;;;;;23.40;101401.00;;;;10465390;28;20217;-76
2021/07/23 07:40:32;;;;;;;15.88;10.25;;;;;23.60;101389.00;;;;10455033;28;20213;-76
2021/07/23 07:45:36;;;;;;;11.57;9.02;;;;;24.00;101399.00;;;;10473524;28;20206;-76
2021/07/23 07:50:38;;;;;;;11.15;9.80;;;;;24.30;101386.00;;;;10455574;28;20653;-77
2021/07/23 07:55:40;;;;;;;11.45;8.60;;;;;24.80;101388.00;;;;10472977;28;20656;-77
2021/07/23 08:00:42;;;;;;;11.60;9.18;;;;;25.10;101377.00;;;;10456222;28;20264;-77
2021/07/23 08:05:44;;;;;;;12.55;9.50;;;;;25.10;101377.00;;;;10445884;28;20218;-76
2021/07/23 08:10:46;;;;;;;10.77;9.27;;;;;25.20;101382.00;;;;10419866;28;20633;-77
2021/07/23 08:15:48;;;;;;;8.45;7.47;;;;;25.50;101375.00;;;;10437638;28;20664;-76
2021/07/23 08:20:52;;;;;;;11.63;8.60;;;;;25.80;101374.00;;;;10460527;28;20190;-77
2021/07/23 08:25:54;;;;;;;9.60;7.85;;;;;26.00;101373.00;;;;10441982;28;20206;-76
2021/07/23 08:30:57;;;;;;;8.77;7.40;;;;;25.90;101374.00;;;;10474133;28;20190;-77
2021/07/23 08:35:59;;;;;;;8.93;8.02;;;;;26.00;101368.00;;;;10488065;28;20206;-77
2021/07/23 08:41:03;;;;;;;10.70;7.90;;;;;26.30;101361.00;;;;10465653;28;20537;-77
2021/07/23 08:46:05;;;;;;;8.20;7.40;;;;;26.50;101360.00;;;;10472102;28;20206;-77
2021/07/23 08:51:08;;;;;;;9.02;7.85;;;;;26.80;101351.00;;;;10481874;28;20193;-77
2021/07/23 08:56:10;;;;;;;9.13;8.20;;;;;26.80;101343.00;;;;10472805;28;20257;-77
2021/07/23 09:01:12;;;;;;;10.82;7.45;;;;;27.20;101339.00;;;;10464880;28;20587;-77
2021/07/23 09:06:16;;;;;;;9.15;8.00;;;;;27.50;101343.00;;;;10441359;28;20194;-76
2021/07/23 09:11:29;;;;;;;9.77;8.40;;;;;27.60;101341.00;;;;10442996;28;20186;-76
2021/07/23 09:16:31;;;;;;;11.40;7.82;;;;;27.70;101339.00;;;;10426015;28;20191;-76
2021/07/23 09:21:38;;;;;;;8.57;7.63;;;;;27.80;101332.00;;;;10426509;28;20210;-76
2021/07/23 09:26:45;;;;;;;8.85;7.85;;;;;28.00;101328.00;;;;10449966;28;20185;-76
2021/07/23 09:32:07;;;;;;;9.50;7.50;;;;;28.10;101308.00;;;;10461341;28;20244;-77
2021/07/23 09:37:11;;;;;;;8.40;6.88;;;;;28.20;101309.00;;;;10444097;28;20183;-76
2021/07/23 09:42:29;;;;;;;8.27;7.03;;;;;28.40;101312.00;;;;10443550;28;20206;-77
2021/07/23 09:47:30;;;;;;;9.63;7.72;;;;;28.70;101306.00;;;;10428659;28;20213;-77
2021/07/23 09:52:33;;;;;;;7.85;6.90;;;;;28.70;101293.00;;;;10467209;28;20186;-76
2021/07/23 09:57:42;;;;;;;9.93;7.70;;;;;28.90;101277.00;;;;10491251;28;20186;-77
2021/07/23 10:02:47;;;;;;;10.55;7.43;;;;;28.50;101276.00;;;;10467442;28;20204;-77
2021/07/23 10:08:08;;;;;;;8.98;6.80;;;;;28.60;101265.00;;;;10489002;28;20221;-77
2021/07/23 10:13:10;;;;;;;7.72;6.95;;;;;29.10;101261.00;;;;10499356;28;20188;-77
2021/07/23 10:18:12;;;;;;;7.20;6.43;;;;;29.20;101252.00;;;;10500779;28;20197;-77
2021/07/23 10:23:23;;;;;;;8.75;7.18;;;;;29.30;101235.00;;;;10471847;28;20234;-76
2021/07/23 10:28:40;;;;;;;8.65;5.75;;;;;29.00;101230.00;;;;10521893;28;20204;-77
2021/07/23 10:33:59;;;;;;;8.18;7.47;;;;;29.00;101223.00;;;;10499766;28;20212;-77
2021/07/23 10:39:05;;;;;;;9.38;6.97;;;;;29.30;101208.00;;;;10489720;28;20265;-77
2021/07/23 10:44:33;;;;;;;7.35;6.65;;;;;28.70;101208.00;;;;10496958;28;20213;-77
2021/07/23 10:49:45;;;;;;;7.00;6.25;;;;;29.50;101206.00;;;;10491096;28;20192;-77
2021/07/23 10:55:08;;;;;;;8.68;7.32;;;;;30.00;101203.00;;;;10487550;28;20276;-79
2021/07/23 11:00:11;;;;;;;7.38;5.93;;;;;30.20;101194.00;;;;10492932;28;20264;-78
2021/07/23 11:05:16;;;;;;;7.07;6.38;;;;;30.50;101199.00;;;;10490651;28;20209;-77
2021/07/23 11:10:20;;;;;;;9.55;6.47;;;;;30.60;101203.00;;;;10462740;28;20198;-76
2021/07/23 11:15:22;;;;;;;7.97;7.00;;;;;30.80;101199.00;;;;10506913;28;20193;-76
2021/07/23 11:20:28;;;;;;;6.90;4.97;;;;;30.90;101196.00;;;;10490918;28;20200;-77
2021/07/23 11:25:30;;;;;;;7.15;6.15;;;;;30.70;101185.00;;;;10504460;28;20205;-77
2021/07/23 11:30:35;;;;;;;7.60;6.80;;;;;30.70;101179.00;;;;10486558;28;20699;-77
2021/07/23 11:35:42;;;;;;;12.82;5.45;;;;;30.90;101176.00;;;;10458140;28;20213;-77
2021/07/23 11:40:44;;;;;;;8.20;5.90;;;;;30.90;101175.00;;;;10487856;28;20756;-77
2021/07/23 11:45:46;;;;;;;11.13;6.05;;;;;31.00;101170.00;;;;10484062;28;20214;-78
2021/07/23 11:50:55;;;;;;;5.57;5.05;;;;;30.90;101166.00;;;;10468850;28;20198;-77
2021/07/23 11:55:58;;;;;;;8.52;4.57;;;;;30.60;101156.00;;;;10483417;28;20201;-77
2021/07/23 12:01:16;;;;;;;7.25;5.95;;;;;30.20;101144.00;;;;10474361;28;20197;-77
2021/07/23 12:06:25;;;;;;;6.18;5.57;;;;;30.20;101131.00;;;;10466783;28;20205;-77
2021/07/23 12:11:29;;;;;;;5.80;5.20;;;;;30.40;101124.00;;;;10457773;28;20711;-77
2021/07/23 12:16:33;;;;;;;5.45;4.90;;;;;30.40;101113.00;;;;10495206;28;20197;-77
2021/07/23 12:21:37;;;;;;;6.20;4.15;;;;;30.60;101103.00;;;;10462854;28;20281;-77
2021/07/23 12:26:41;;;;;;;5.10;3.53;;;;;30.50;101108.00;;;;10457068;28;20190;-77
2021/07/23 12:31:43;;;;;;;5.18;4.03;;;;;29.70;101099.00;;;;10498459;28;20672;-77
2021/07/23 12:36:47;;;;;;;5.78;4.70;;;;;29.60;101080.00;;;;10495609;28;20209;-76
2021/07/23 12:41:49;;;;;;;5.88;4.60;;;;;30.40;101078.00;;;;10449030;28;20190;-77
2021/07/23 12:46:51;;;;;;;5.57;4.50;;;;;30.50;101083.00;;;;10472563;28;20761;-77
2021/07/23 12:52:02;;;;;;;5.97;4.50;;;;;30.70;101079.00;;;;10477018;28;20219;-76
2021/07/23 12:57:32;;;;;;;4.43;4.10;;;;;30.60;101074.00;;;;10462436;28;20190;-76
2021/07/23 13:02:33;;;;;;;4.40;4.03;;;;;30.60;101065.00;;;;10468375;28;20209;-77
2021/07/23 13:07:37;;;;;;;5.20;4.13;;;;;30.50;101057.00;;;;10456596;28;20220;-77
2021/07/23 13:12:39;;;;;;;6.13;4.20;;;;;30.40;101059.00;;;;10469740;28;20640;-77
2021/07/23 13:17:41;;;;;;;3.90;3.60;;;;;30.20;101064.00;;;;10474035;28;20217;-77
2021/07/23 13:22:43;;;;;;;3.92;3.38;;;;;30.20;101058.00;;;;10459064;28;20207;-77
2021/07/23 13:27:45;;;;;;;7.30;4.32;;;;;30.20;101049.00;;;;10453072;28;20200;-77
2021/07/23 13:32:47;;;;;;;3.83;3.50;;;;;30.60;101046.00;;;;10466119;28;20218;-77
2021/07/23 13:37:53;;;;;;;5.22;4.05;;;;;30.60;101045.00;;;;10476981;28;20208;-77
2021/07/23 13:42:56;;;;;;;5.25;3.75;;;;;30.70;101037.00;;;;10483580;28;20651;-77
2021/07/23 13:47:58;;;;;;;6.25;4.10;;;;;30.90;101036.00;;;;10441712;28;20201;-77
2021/07/23 13:53:01;;;;;;;4.32;3.72;;;;;31.30;101016.00;;;;10473304;28;20189;-77
2021/07/23 13:58:09;;;;;;;13.98;4.13;;;;;31.90;101015.00;;;;10464570;28;20198;-77
2021/07/23 14:03:11;;;;;;;3.88;3.28;;;;;33.30;101012.00;;;;10461046;28;20201;-77
2021/07/23 14:08:19;;;;;;;6.10;2.90;;;;;34.70;101010.00;;;;10455351;28;20197;-77
2021/07/23 14:13:21;;;;;;;3.45;3.20;;;;;36.10;100996.00;;;;10444410;28;20193;-77
2021/07/23 14:18:26;;;;;;;5.70;3.40;;;;;36.00;100993.00;;;;10432844;28;20260;-77
2021/07/23 14:23:29;;;;;;;5.10;3.58;;;;;37.00;100973.00;;;;10450877;28;20201;-77
2021/07/23 14:28:30;;;;;;;4.00;3.00;;;;;38.10;100975.00;;;;10443741;28;20201;-78
2021/07/23 14:33:32;;;;;;;4.53;3.00;;;;;38.30;100963.00;;;;10419940;28;20202;-77
2021/07/23 14:38:35;;;;;;;3.63;3.08;;;;;38.40;100959.00;;;;10439651;28;20194;-77
2021/07/23 14:43:37;;;;;;;3.45;3.13;;;;;38.20;100951.00;;;;10477455;28;20252;-77
2021/07/23 14:48:39;;;;;;;4.65;2.97;;;;;38.60;100965.00;;;;10456094;28;20208;-77
2021/07/23 14:53:41;;;;;;;3.72;2.65;;;;;36.70;100952.00;;;;10436971;28;20251;-77
2021/07/23 14:58:43;;;;;;;3.95;2.92;;;;;37.80;100939.00;;;;10429877;28;20186;-77
2021/07/23 15:03:48;;;;;;;3.25;2.42;;;;;38.10;100937.00;;;;10456027;28;20233;-77
2021/07/23 15:08:50;;;;;;;4.63;2.33;;;;;36.20;100938.00;;;;10456113;28;20216;-78
2021/07/23 15:13:52;;;;;;;3.72;2.80;;;;;37.10;100924.00;;;;10471072;28;20194;-78
2021/07/23 15:18:54;;;;;;;3.33;2.95;;;;;35.60;100921.00;;;;10471460;28;20239;-78
2021/07/23 15:23:56;;;;;;;4.35;3.03;;;;;37.90;100920.00;;;;10479415;28;20206;-77
2021/07/23 15:28:58;;;;;;;5.90;3.53;;;;;38.50;100921.00;;;;10479942;28;20201;-77
2021/07/23 15:34:03;;;;;;;2.85;2.65;;;;;38.20;100923.00;;;;10464216;28;20202;-78
2021/07/23 15:39:06;;;;;;;6.47;2.90;;;;;36.00;100905.00;;;;10451357;28;20190;-77
2021/07/23 15:44:08;;;;;;;3.50;2.65;;;;;36.90;100900.00;;;;10457423;28;20209;-77
2021/07/23 15:49:10;;;;;;;3.50;2.67;;;;;38.10;100906.00;;;;10440533;28;21009;-78
2021/07/23 15:54:11;;;;;;;2.67;2.47;;;;;34.00;100913.00;;;;10457999;28;20206;-78
2021/07/23 15:59:13;;;;;;;5.10;2.13;;;;;30.70;100899.00;;;;10432529;28;20260;-77
2021/07/23 16:04:18;;;;;;;3.72;2.35;;;;;29.50;100898.00;;;;10481024;28;20256;-77
2021/07/23 16:09:20;;;;;;;4.25;2.30;;;;;28.80;100902.00;;;;10430122;28;20203;-77
2021/07/23 16:14:23;;;;;;;2.63;2.42;;;;;28.20;100883.00;;;;10458865;28;20192;-77
2021/07/23 16:19:25;;;;;;;4.93;2.50;;;;;27.90;100879.00;;;;10459077;28;20269;-77
2021/07/23 16:24:27;;;;;;;2.95;2.13;;;;;27.60;100873.00;;;;10464272;28;20220;-76
2021/07/23 16:29:30;;;;;;;2.40;2.10;;;;;27.30;100861.00;;;;10505123;28;20208;-77
2021/07/23 16:34:33;;;;;;;2.28;2.08;;;;;26.90;100864.00;;;;10435381;28;20206;-76
2021/07/23 16:39:35;;;;;;;3.78;2.58;;;;;26.60;100844.00;;;;10444124;28;20190;-77
2021/07/23 16:44:37;;;;;;;3.95;2.00;;;;;26.30;100848.00;;;;10426067;28;20865;-77
2021/07/23 16:49:39;;;;;;;2.90;2.50;;;;;26.00;100844.00;;;;10442658;28;20190;-76
2021/07/23 16:54:40;;;;;;;4.15;2.22;;;;;26.10;100831.00;;;;10438442;28;20194;-76
2021/07/23 16:59:43;;;;;;;2.45;2.22;;;;;26.20;100827.00;;;;10426192;28;20599;-76
2021/07/23 17:04:45;;;;;;;6.38;2.30;;;;;26.20;100822.00;;;;10442716;28;20202;-77
2021/07/23 17:09:47;;;;;;;8.18;2.30;;;;;26.30;100818.00;;;;10475805;28;20248;-77
2021/07/23 17:14:48;;;;;;;3.78;2.38;;;;;26.40;100815.00;;;;10459105;28;20262;-76
2021/07/23 17:19:54;;;;;;;4.47;2.58;;;;;26.30;100802.00;;;;10451527;28;20273;-77
2021/07/23 17:24:58;;;;;;;3.13;2.30;;;;;26.10;100797.00;;;;10466355;28;20661;-76
2021/07/23 17:30:00;;;;;;;2.85;2.50;;;;;26.00;100790.00;;;;10499750;28;20194;-77
2021/07/23 17:35:03;;;;;;;6.15;5.07;;;;;25.90;100785.00;;;;10476559;28;20229;-76
2021/07/23 17:40:06;;;;;;;6.28;3.55;;;;;25.60;100776.00;;;;10441803;28;20203;-76
2021/07/23 17:45:21;;;;;;;3.72;2.55;;;;;25.40;100772.00;;;;10478636;28;20209;-76
2021/07/23 17:50:23;;;;;;;3.60;2.75;;;;;25.20;100776.00;;;;10523594;28;20639;-76
2021/07/23 17:55:25;;;;;;;4.03;2.80;;;;;25.30;100763.00;;;;10480062;28;20239;-76
2021/07/23 18:00:28;;;;;;;2.90;2.58;;;;;25.50;100761.00;;;;10469194;28;20544;-76
2021/07/23 18:05:30;;;;;;;5.03;2.40;;;;;25.60;100761.00;;;;10464474;28;20235;-76
2021/07/23 18:10:31;;;;;;;3.92;2.85;;;;;25.60;100761.00;;;;10464506;28;20201;-76
2021/07/23 18:15:33;;;;;;;4.82;2.92;;;;;25.50;100764.00;;;;10480504;28;20196;-76
2021/07/23 18:20:35;;;;;;;4.00;2.55;;;;;25.20;100762.00;;;;10505435;28;20706;-76
2021/07/23 18:25:37;;;;;;;7.50;2.50;;;;;24.80;100766.00;;;;10483866;28;20300;-77
2021/07/23 18:30:39;;;;;;;3.17;2.38;;;;;24.50;100753.00;;;;10481108;28;20193;-77
2021/07/23 18:35:42;;;;;;;3.97;3.00;;;;;24.30;100751.00;;;;10464508;28;20251;-77
2021/07/23 18:40:44;;;;;;;5.05;3.00;;;;;24.10;100747.00;;;;10481960;28;20201;-77
2021/07/23 18:45:48;;;;;;;3.70;2.78;;;;;23.90;100749.00;;;;10502442;28;20209;-76
2021/07/23 18:50:50;;;;;;;4.65;2.90;;;;;23.70;100739.00;;;;10522439;28;20193;-76
2021/07/23 18:55:52;;;;;;;3.08;2.75;;;;;23.50;100722.00;;;;10505618;28;20224;-77
2021/07/23 19:00:54;;;;;;;4.22;2.60;;;;;23.20;100725.00;;;;10505068;28;20224;-76
2021/07/23 19:05:57;;;;;;;3.95;3.08;;;;;23.00;100730.00;;;;10503794;28;20205;-76
2021/07/23 19:11:01;;;;;;;5.45;2.83;;;;;22.80;100714.00;;;;10504548;28;20602;-76
2021/07/23 19:16:04;;;;;;;3.80;3.20;;;;;22.70;100720.00;;;;10528390;28;20288;-76
2021/07/23 19:21:10;;;;;;;4.07;3.33;;;;;22.50;100722.00;;;;10512637;28;20231;-76
2021/07/23 19:26:32;;;;;;;4.75;3.25;;;;;22.30;100717.00;;;;10473294;28;20209;-76
2021/07/23 19:31:34;;;;;;;5.28;3.38;;;;;22.10;100723.00;;;;10452605;28;20255;-76
2021/07/23 19:36:37;;;;;;;5.03;3.13;;;;;21.90;100720.00;;;;10462315;28;20196;-76
2021/07/23 19:41:39;;;;;;;4.70;3.13;;;;;21.70;100723.00;;;;10486357;28;20201;-76
2021/07/23 19:46:41;;;;;;;3.80;3.50;;;;;21.50;100737.00;;;;10434821;28;20221;-76
2021/07/23 19:51:43;;;;;;;3.40;3.10;;;;;21.40;100725.00;;;;10444603;28;20191;-76
2021/07/23 19:56:45;;;;;;;5.63;2.97;;;;;21.20;100740.00;;;;10391650;28;20195;-76
2021/07/23 20:01:48;;;;;;;4.85;3.45;;;;;21.10;100734.00;;;;10404784;28;20322;-76
2021/07/23 20:06:50;;;;;;;5.53;3.92;;;;;21.00;100735.00;;;;10387236;28;20337;-76
2021/07/23 20:11:52;;;;;;;9.25;4.00;;;;;20.90;100727.00;;;;10403121;28;20233;-76
2021/07/23 20:16:54;;;;;;;6.03;3.55;;;;;20.80;100723.00;;;;10383932;28;20333;-76
2021/07/23 20:21:56;;;;;;;7.00;4.05;;;;;20.70;100728.00;;;;10414148;28;20651;-76
2021/07/23 20:26:58;;;;;;;13.65;3.90;;;;;20.60;100724.00;;;;10419405;28;20211;-76
2021/07/23 20:32:00;;;;;;;5.32;4.18;;;;;20.50;100720.00;;;;10401972;28;20242;-76
2021/07/23 20:37:04;;;;;;;5.18;4.05;;;;;20.50;100719.00;;;;10401685;28;20218;-77
2021/07/23 20:42:06;;;;;;;8.10;4.20;;;;;20.30;100724.00;;;;10385787;28;20647;-76
2021/07/23 20:47:08;;;;;;;6.22;4.10;;;;;20.20;100725.00;;;;10439750;28;20218;-76
2021/07/23 20:52:10;;;;;;;10.13;4.38;;;;;20.10;100721.00;;;;10409362;28;20550;-76
2021/07/23 20:57:12;;;;;;;7.22;4.20;;;;;20.00;100721.00;;;;10443141;28;20616;-76
2021/07/23 21:02:15;;;;;;;6.95;4.95;;;;;20.00;100721.00;;;;10442678;28;20198;-77
2021/07/23 21:07:17;;;;;;;10.00;5.20;;;;;19.80;100722.00;;;;10440245;28;20210;-76
2021/07/23 21:12:20;;;;;;;9.57;5.00;;;;;19.80;100716.00;;;;10425950;28;20190;-76
2021/07/23 21:17:22;;;;;;;7.72;5.13;;;;;19.70;100711.00;;;;10441383;28;20191;-77
2021/07/23 21:22:24;;;;;;;6.93;5.53;;;;;19.60;100713.00;;;;10441402;28;20694;-76
2021/07/23 21:27:26;;;;;;;7.78;5.90;;;;;19.50;100725.00;;;;10458841;28;20255;-76
2021/07/23 21:32:29;;;;;;;8.18;6.15;;;;;19.40;100736.00;;;;10440852;28;20731;-76
2021/07/23 21:37:31;;;;;;;6.78;5.70;;;;;19.30;100727.00;;;;10439808;28;20186;-76
2021/07/23 21:42:33;;;;;;;6.90;5.82;;;;;19.20;100725.00;;;;10423958;28;20191;-77
2021/07/23 21:47:34;;;;;;;7.35;5.45;;;;;19.20;100720.00;;;;10439949;28;20214;-76
2021/07/23 21:52:36;;;;;;;10.68;5.93;;;;;19.10;100724.00;;;;10448556;28;20234;-76
2021/07/23 21:57:38;;;;;;;8.55;6.07;;;;;19.00;100718.00;;;;10464538;28;20564;-76
2021/07/23 22:02:40;;;;;;;7.57;5.63;;;;;19.00;100702.00;;;;10471367;28;20198;-77
2021/07/23 22:07:43;;;;;;;9.23;6.18;;;;;19.00;100702.00;;;;10406928;28;20210;-76
2021/07/23 22:12:45;;;;;;;7.57;5.53;;;;;19.00;100701.00;;;;10439827;28;20190;-76
2021/07/23 22:17:47;;;;;;;7.22;6.32;;;;;18.90;100691.00;;;;10423516;28;20182;-76
2021/07/23 22:22:48;;;;;;;11.10;6.55;;;;;18.90;100690.00;;;;10439179;28;20202;-76
2021/07/23 22:27:50;;;;;;;10.70;6.53;;;;;18.80;100670.00;;;;10438788;28;20217;-76
2021/07/23 22:32:52;;;;;;;12.50;6.70;;;;;18.70;100671.00;;;;10438872;28;20221;-76
2021/07/23 22:37:54;;;;;;;8.82;7.07;;;;;18.70;100664.00;;;;10456481;28;20186;-76
2021/07/23 22:42:56;;;;;;;11.63;7.18;;;;;18.60;100677.00;;;;10422677;28;20248;-76
2021/07/23 22:47:57;;;;;;;10.55;7.30;;;;;18.60;100666.00;;;;10438283;28;20202;-76
2021/07/23 22:53:00;;;;;;;9.73;7.63;;;;;18.50;100675.00;;;;10424905;28;20730;-76
2021/07/23 22:58:02;;;;;;;15.60;7.80;;;;;18.50;100674.00;;;;10405881;28;20199;-76
2021/07/23 23:03:04;;;;;;;8.95;7.50;;;;;18.40;100668.00;;;;10421593;28;20593;-77
2021/07/23 23:08:07;;;;;;;9.00;7.88;;;;;18.40;100678.00;;;;10423413;28;20245;-76
2021/07/23 23:13:08;;;;;;;9.07;7.57;;;;;18.40;100695.00;;;;10404925;28;20194;-75
2021/07/23 23:18:10;;;;;;;9.02;7.88;;;;;18.30;100711.00;;;;10421427;28;20542;-76
2021/07/23 23:23:12;;;;;;;9.65;7.75;;;;;18.30;100732.00;;;;10421662;28;20202;-76
2021/07/23 23:28:14;;;;;;;10.02;8.38;;;;;18.20;100729.00;;;;10421118;28;20210;-76
2021/07/23 23:33:16;;;;;;;12.30;7.32;;;;;18.20;100729.00;;;;10437002;28;20214;-76
2021/07/23 23:38:19;;;;;;;10.00;7.97;;;;;18.20;100719.00;;;;10455720;28;20638;-77
2021/07/23 23:43:21;;;;;;;11.43;8.70;;;;;18.10;100710.00;;;;10405334;28;20198;-76
2021/07/23 23:48:23;;;;;;;10.65;8.27;;;;;18.10;100700.00;;;;10420495;28;20233;-76
2021/07/23 23:53:27;;;;;;;12.07;8.07;;;;;18.00;100663.00;;;;10436712;28;20199;-76
2021/07/23 23:58:30;;;;;;;12.23;9.20;;;;;18.00;100666.00;;;;10420257;28;20194;-76
